createdAt,value
2023-02-16T01:28:32.365Z,18.40
2023-02-16T01:29:32.326Z,17.80
2023-02-16T01:30:32.393Z,17.00
2023-02-16T01:31:32.441Z,18.70
2023-02-16T01:32:32.283Z,18.30
2023-02-16T01:33:32.294Z,18.10
2023-02-16T01:34:32.279Z,20.40
2023-02-16T01:35:32.267Z,16.90
2023-02-16T01:36:32.249Z,19.10
2023-02-16T01:37:32.232Z,17.40
2023-02-16T01:38:32.265Z,19.30
2023-02-16T01:39:32.210Z,17.80
2023-02-16T01:40:32.231Z,17.60
2023-02-16T01:41:32.248Z,17.00
2023-02-16T01:42:32.192Z,17.20
2023-02-16T01:43:32.170Z,18.60
2023-02-16T01:44:32.190Z,20.00
2023-02-16T01:45:32.157Z,16.70
2023-02-16T01:46:32.266Z,19.00
2023-02-16T01:47:32.145Z,16.70
2023-02-16T01:48:32.115Z,19.00
2023-02-16T01:49:32.153Z,19.00
2023-02-16T01:50:32.094Z,19.10
2023-02-16T01:51:32.113Z,20.00
2023-02-16T01:52:32.101Z,19.80
2023-02-16T01:53:32.070Z,18.30
2023-02-16T01:54:32.071Z,20.40
2023-02-16T01:55:32.040Z,18.60
2023-02-16T01:56:32.031Z,19.30
2023-02-16T01:57:32.034Z,21.90
2023-02-16T01:58:32.012Z,18.00
2023-02-16T01:59:32.023Z,19.50
2023-02-16T02:00:32.009Z,19.30
2023-02-16T02:01:32.040Z,20.80
2023-02-16T02:02:31.963Z,17.80
2023-02-16T02:03:31.953Z,19.80
2023-02-16T02:04:31.954Z,19.80
2023-02-16T02:05:31.949Z,18.50
2023-02-16T02:06:31.918Z,19.50
2023-02-16T02:07:31.904Z,17.70
2023-02-16T02:08:31.917Z,17.50
2023-02-16T02:09:31.909Z,19.90
2023-02-16T02:10:31.887Z,20.40
2023-02-16T02:11:31.876Z,19.00
2023-02-16T02:12:31.865Z,18.00
2023-02-16T02:13:31.851Z,21.60
2023-02-16T02:14:31.843Z,20.20
2023-02-16T02:15:31.834Z,20.00
2023-02-16T02:16:31.913Z,18.10
2023-02-16T02:17:31.814Z,19.10
2023-02-16T02:18:31.799Z,17.80
2023-02-16T02:19:31.792Z,18.20
2023-02-16T02:20:31.799Z,21.20
2023-02-16T02:21:31.764Z,18.30
2023-02-16T02:22:31.752Z,19.60
2023-02-16T02:23:31.739Z,18.50
2023-02-16T02:24:31.732Z,19.70
2023-02-16T02:25:31.722Z,19.30
2023-02-16T02:26:31.720Z,18.80
2023-02-16T02:27:31.709Z,19.00
2023-02-16T02:28:31.678Z,20.10
2023-02-16T02:29:31.683Z,19.50
2023-02-16T02:30:31.711Z,21.60
2023-02-16T02:31:31.762Z,21.80
2023-02-16T02:32:31.664Z,19.20
2023-02-16T02:33:31.632Z,19.40
2023-02-16T02:34:31.628Z,19.20
2023-02-16T02:35:31.605Z,21.30
2023-02-16T02:36:31.603Z,19.90
2023-02-16T02:37:31.594Z,19.30
2023-02-16T02:38:31.591Z,21.00
2023-02-16T02:39:31.561Z,23.10
2023-02-16T02:40:31.561Z,21.70
2023-02-16T02:41:31.547Z,20.80
2023-02-16T02:42:31.529Z,19.80
2023-02-16T02:43:31.523Z,20.70
2023-02-16T02:44:31.517Z,22.40
2023-02-16T02:45:31.521Z,20.80
2023-02-16T02:46:31.552Z,20.30
2023-02-16T02:47:31.472Z,21.70
2023-02-16T02:48:31.498Z,20.00
2023-02-16T02:49:31.461Z,19.90
2023-02-16T02:50:31.469Z,22.20
2023-02-16T02:51:31.436Z,23.80
2023-02-16T02:52:31.435Z,21.90
2023-02-16T02:53:31.410Z,21.70
2023-02-16T02:54:31.403Z,19.90
2023-02-16T02:55:31.395Z,20.50
2023-02-16T02:56:31.378Z,23.10
2023-02-16T02:57:31.360Z,20.90
2023-02-16T02:58:31.356Z,22.00
2023-02-16T02:59:31.344Z,23.30
2023-02-16T03:00:31.361Z,20.20
2023-02-16T03:01:31.316Z,22.40
2023-02-16T03:02:31.310Z,22.40
2023-02-16T03:03:31.308Z,19.70
2023-02-16T03:04:31.327Z,22.90
2023-02-16T03:05:31.314Z,21.30
2023-02-16T03:06:31.280Z,20.80
2023-02-16T03:07:31.251Z,20.80
2023-02-16T03:08:31.247Z,20.50
2023-02-16T03:09:31.243Z,24.60
2023-02-16T03:10:31.240Z,21.00
2023-02-16T03:11:31.210Z,22.80
2023-02-16T03:12:31.546Z,20.80
2023-02-16T03:13:31.183Z,21.30
2023-02-16T03:14:31.201Z,22.80
2023-02-16T03:15:31.175Z,23.10
2023-02-16T03:16:31.273Z,21.90
2023-02-16T03:17:31.162Z,21.80
2023-02-16T03:18:31.132Z,22.90
2023-02-16T03:19:31.129Z,22.50
2023-02-16T03:20:31.141Z,23.20
2023-02-16T03:21:31.098Z,25.10
2023-02-16T03:22:31.098Z,25.10
2023-02-16T03:23:31.090Z,23.80
2023-02-16T03:24:31.081Z,22.90
2023-02-16T03:25:31.051Z,24.10
2023-02-16T03:26:31.083Z,24.90
2023-02-16T03:27:31.042Z,22.10
2023-02-16T03:28:38.048Z,22.40
2023-02-16T03:29:31.026Z,23.80
2023-02-16T03:30:31.147Z,20.80
2023-02-16T03:31:31.152Z,21.70
2023-02-16T03:32:30.976Z,23.90
2023-02-16T03:33:30.974Z,24.10
2023-02-16T03:34:30.956Z,25.40
2023-02-16T03:35:30.941Z,21.50
2023-02-16T03:36:30.966Z,20.40
2023-02-16T03:37:30.920Z,23.00
2023-02-16T03:38:30.921Z,24.10
2023-02-16T03:39:30.910Z,22.90
2023-02-16T03:40:30.930Z,22.00
2023-02-16T03:41:30.905Z,23.20
2023-02-16T03:42:30.896Z,21.60
2023-02-16T03:43:30.868Z,22.10
2023-02-16T03:44:30.856Z,20.20
2023-02-16T03:45:30.899Z,24.70
2023-02-16T03:46:30.829Z,20.60
2023-02-16T03:47:30.834Z,24.40
2023-02-16T03:48:30.855Z,23.00
2023-02-16T03:49:30.791Z,22.80
2023-02-16T03:50:30.793Z,22.60
2023-02-16T03:51:30.775Z,24.20
2023-02-16T03:52:30.784Z,25.00
2023-02-16T03:53:30.756Z,23.90
2023-02-16T03:54:30.744Z,22.50
2023-02-16T03:55:30.764Z,24.10
2023-02-16T03:56:30.739Z,23.60
2023-02-16T03:57:30.707Z,22.80
2023-02-16T03:58:30.708Z,22.50
2023-02-16T03:59:30.699Z,24.40
2023-02-16T04:00:30.684Z,23.50
2023-02-16T04:01:30.671Z,23.80
2023-02-16T04:02:30.713Z,24.70
2023-02-16T04:03:30.686Z,23.70
2023-02-16T04:04:30.691Z,22.50
2023-02-16T04:05:30.629Z,22.60
2023-02-16T04:06:30.628Z,24.10
2023-02-16T04:07:31.848Z,23.00
2023-02-16T04:08:30.623Z,24.70
2023-02-16T04:09:30.588Z,25.50
2023-02-16T04:10:30.596Z,23.60
2023-02-16T04:11:30.567Z,23.20
2023-02-16T04:12:30.547Z,23.70
2023-02-16T04:13:30.539Z,23.80
2023-02-16T04:14:30.551Z,28.60
2023-02-16T04:15:30.547Z,23.50
2023-02-16T04:16:30.545Z,25.60
2023-02-16T04:17:30.508Z,22.50
2023-02-16T04:18:30.480Z,24.00
2023-02-16T04:19:30.484Z,25.70
2023-02-16T04:20:30.478Z,25.70
2023-02-16T04:21:30.472Z,26.40
2023-02-16T04:22:30.434Z,23.90
2023-02-16T04:23:30.440Z,25.30
2023-02-16T04:24:30.449Z,25.50
2023-02-16T04:25:30.407Z,24.20
2023-02-16T04:26:30.404Z,24.60
2023-02-16T04:27:30.432Z,26.30
2023-02-16T04:28:30.423Z,23.10
2023-02-16T04:29:30.382Z,24.50
2023-02-16T04:30:30.476Z,26.60
2023-02-16T04:31:30.451Z,23.30
2023-02-16T04:32:30.334Z,26.40
2023-02-16T04:33:30.310Z,24.80
2023-02-16T04:34:30.317Z,25.20
2023-02-16T04:35:30.291Z,25.90
2023-02-16T04:36:30.290Z,26.70
2023-02-16T04:37:30.274Z,25.10
2023-02-16T04:38:30.264Z,25.30
2023-02-16T04:39:30.254Z,24.40
2023-02-16T04:40:30.267Z,25.00
2023-02-16T04:41:30.595Z,25.10
2023-02-16T04:42:30.228Z,26.70
2023-02-16T04:43:30.197Z,25.10
2023-02-16T04:44:30.193Z,25.00
2023-02-16T04:45:30.189Z,27.70
2023-02-16T04:46:30.288Z,25.30
2023-02-16T04:47:30.154Z,24.10
2023-02-16T04:48:30.190Z,25.20
2023-02-16T04:49:30.146Z,28.30
2023-02-16T04:50:30.124Z,26.40
2023-02-16T04:51:30.113Z,26.30
2023-02-16T04:52:30.117Z,27.30
2023-02-16T04:53:30.089Z,25.00
2023-02-16T04:54:30.079Z,26.00
2023-02-16T04:55:30.111Z,26.80
2023-02-16T04:56:30.094Z,26.70
2023-02-16T04:57:30.065Z,28.80
2023-02-16T04:58:30.036Z,27.20
2023-02-16T04:59:30.032Z,25.30
2023-02-16T05:00:30.030Z,24.40
2023-02-16T05:01:30.080Z,27.10
2023-02-16T05:02:29.993Z,24.50
2023-02-16T05:03:29.984Z,25.00
2023-02-16T05:04:30.039Z,26.40
2023-02-16T05:05:29.981Z,26.00
2023-02-16T05:06:29.952Z,26.90
2023-02-16T05:58:22.617Z,24.10
2023-02-16T05:59:22.569Z,27.80
2023-02-16T06:00:22.558Z,26.10
2023-02-16T06:01:22.560Z,28.40
2023-02-16T06:02:22.603Z,25.70
2023-02-16T06:03:22.603Z,27.70
2023-02-16T06:04:22.531Z,27.50
2023-02-16T06:05:22.513Z,26.90
2023-02-16T06:06:22.493Z,27.90
2023-02-16T06:07:22.507Z,27.20
2023-02-16T06:08:22.472Z,28.00
2023-02-16T06:09:22.477Z,26.30
2023-02-16T06:10:22.456Z,28.20
2023-02-16T06:11:22.442Z,31.10
2023-02-16T06:12:22.444Z,26.50
2023-02-16T06:13:22.415Z,26.90
2023-02-16T06:14:22.427Z,27.30
2023-02-16T06:15:22.396Z,28.20
2023-02-16T06:16:22.490Z,25.20
2023-02-16T06:17:22.429Z,30.30
2023-02-16T06:18:22.367Z,28.00
2023-02-16T06:19:22.370Z,27.20
2023-02-16T06:20:22.355Z,29.20
2023-02-16T06:21:22.333Z,27.80
2023-02-16T06:22:22.339Z,27.60
2023-02-16T06:23:22.332Z,26.80
2023-02-16T06:24:22.323Z,29.00
2023-02-16T06:25:22.287Z,27.30
2023-02-16T06:26:22.283Z,29.40
2023-02-16T06:27:22.282Z,27.80
2023-02-16T06:28:22.263Z,30.30
2023-02-16T06:29:22.254Z,27.10
2023-02-16T06:30:22.487Z,27.30
2023-02-16T06:31:22.354Z,28.60
2023-02-16T06:32:22.372Z,29.70
2023-02-16T06:33:22.237Z,29.40
2023-02-16T06:34:22.227Z,27.80
2023-02-16T06:35:22.214Z,29.30
2023-02-16T06:36:22.190Z,27.70
2023-02-16T06:37:22.200Z,25.90
2023-02-16T06:38:22.164Z,26.20
2023-02-16T06:39:22.162Z,27.90
2023-02-16T06:40:22.154Z,25.10
2023-02-16T06:41:22.134Z,27.60
2023-02-16T06:42:22.127Z,25.10
2023-02-16T06:43:22.909Z,27.90
2023-02-16T06:44:22.092Z,30.60
2023-02-16T06:45:22.080Z,29.50
2023-02-16T06:46:22.165Z,26.90
2023-02-16T06:47:22.164Z,27.50
2023-02-16T06:48:22.110Z,26.00
2023-02-16T06:49:22.040Z,26.00
2023-02-16T06:50:22.044Z,27.50
2023-02-16T06:51:22.009Z,25.00
2023-02-16T06:52:22.019Z,27.20
2023-02-16T06:53:22.031Z,25.60
2023-02-16T06:54:22.040Z,26.10
2023-02-16T06:55:22.006Z,25.30
2023-02-16T06:56:21.980Z,26.30
2023-02-16T06:57:21.972Z,26.50
2023-02-16T06:58:22.277Z,25.80
2023-02-16T06:59:22.034Z,29.40
2023-02-16T07:00:21.922Z,27.00
2023-02-16T07:01:22.000Z,28.10
2023-02-16T07:02:21.923Z,25.80
2023-02-16T07:03:21.985Z,26.90
2023-02-16T07:04:21.904Z,27.60
2023-02-16T07:05:21.884Z,27.20
2023-02-16T07:06:21.882Z,23.60
2023-02-16T07:07:21.854Z,24.60
2023-02-16T07:08:21.838Z,26.80
2023-02-16T07:09:21.900Z,27.90
2023-02-16T07:10:21.831Z,24.10
2023-02-16T07:11:21.954Z,24.80
2023-02-16T07:12:21.836Z,23.20
2023-02-16T07:13:22.198Z,26.00
2023-02-16T07:14:21.803Z,26.10
2023-02-16T07:15:21.859Z,25.60
2023-02-16T07:16:21.918Z,24.00
2023-02-16T07:17:21.768Z,26.20
2023-02-16T07:18:21.766Z,24.00
2023-02-16T07:19:21.719Z,22.60
2023-02-16T07:20:21.706Z,23.00
2023-02-16T07:41:47.373Z,21.10
2023-02-16T07:42:47.304Z,22.30
2023-02-16T07:43:47.293Z,24.00
2023-02-16T07:44:47.297Z,22.60
2023-02-16T07:45:47.312Z,21.80
2023-02-16T07:46:47.288Z,21.40
2023-02-16T07:47:47.291Z,23.80
2023-02-16T07:48:47.251Z,23.50
2023-02-16T07:49:47.317Z,23.50
2023-02-16T07:50:47.218Z,21.10
2023-02-16T07:51:47.205Z,22.40
2023-02-16T07:52:47.248Z,22.70
2023-02-16T07:53:47.205Z,21.60
2023-02-16T07:54:47.280Z,22.20
2023-02-16T07:55:47.165Z,22.30
2023-02-16T07:56:47.140Z,23.50
2023-02-16T07:57:47.152Z,23.60
2023-02-16T07:58:47.129Z,23.10
2023-02-16T07:59:47.121Z,21.20
2023-02-16T08:00:47.113Z,20.20
2023-02-16T08:01:47.173Z,21.50
2023-02-16T08:02:47.262Z,22.30
2023-02-16T08:03:47.074Z,22.40
2023-02-16T08:04:47.058Z,21.10
2023-02-16T08:05:47.061Z,22.00
2023-02-16T08:06:47.131Z,22.00
2023-02-16T08:07:47.052Z,19.90
2023-02-16T08:08:47.048Z,19.10
2023-02-16T08:09:47.125Z,21.70
2023-02-16T08:10:47.030Z,22.40
2023-02-16T08:11:46.978Z,19.80
2023-02-16T08:12:46.996Z,21.40
2023-02-16T08:13:46.992Z,21.10
2023-02-16T08:14:46.941Z,19.80
2023-02-16T08:15:46.956Z,21.20
2023-02-16T08:16:47.033Z,21.40
2023-02-16T08:17:46.940Z,20.70
2023-02-16T08:18:46.955Z,21.80
2023-02-16T08:19:46.937Z,22.10
2023-02-16T08:21:02.687Z,22.70
2023-02-16T08:21:46.871Z,22.00
2023-02-16T08:22:46.861Z,18.80
2023-02-16T08:23:47.011Z,21.70
2023-02-16T08:24:46.853Z,22.60
2023-02-16T08:25:46.853Z,20.00
2023-02-16T08:26:46.850Z,21.20
2023-02-16T08:27:46.829Z,21.20
2023-02-16T08:28:46.832Z,22.90
2023-02-16T08:29:46.815Z,20.50
2023-02-16T08:30:46.787Z,21.30
2023-02-16T08:31:46.947Z,22.40
2023-02-16T08:32:46.748Z,23.50
2023-02-16T08:33:46.746Z,21.60
2023-02-16T08:34:46.881Z,19.50
2023-02-16T08:35:47.542Z,19.80
2023-02-16T08:36:46.743Z,21.20
2023-02-16T08:37:46.709Z,20.80
2023-02-16T08:38:46.716Z,21.10
2023-02-16T08:39:46.681Z,21.20
2023-02-16T08:40:46.683Z,19.20
2023-02-16T08:41:46.688Z,21.70
2023-02-16T08:42:46.658Z,22.60
2023-02-16T08:43:46.842Z,23.00
2023-02-16T08:44:46.727Z,21.50
2023-02-16T08:45:46.769Z,18.70
2023-02-16T08:46:46.590Z,19.70
2023-02-16T08:47:46.653Z,20.20
2023-02-16T08:48:46.583Z,21.60
2023-02-16T08:49:47.567Z,22.60
2023-02-16T08:50:46.548Z,19.50
2023-02-16T08:51:46.559Z,22.20
2023-02-16T08:52:46.522Z,18.80
2023-02-16T08:53:46.536Z,21.20
2023-02-16T08:54:46.506Z,20.20
2023-02-16T08:55:46.522Z,21.40
2023-02-16T08:56:46.508Z,21.60
2023-02-16T08:57:47.489Z,19.40
2023-02-16T08:58:46.483Z,21.60
2023-02-16T08:59:46.466Z,20.90
2023-02-16T09:00:46.440Z,19.20
2023-02-16T09:01:46.467Z,21.30
2023-02-16T09:02:46.554Z,21.40
2023-02-16T09:03:46.438Z,19.70
2023-02-16T09:04:48.750Z,20.40
2023-02-16T09:05:46.387Z,19.60
2023-02-16T09:06:46.382Z,19.90
2023-02-16T09:07:46.370Z,18.50
2023-02-16T09:08:46.493Z,19.00
2023-02-16T09:09:46.479Z,20.20
2023-02-16T09:10:46.365Z,20.30
2023-02-16T09:11:46.336Z,19.30
2023-02-16T09:12:46.317Z,18.40
2023-02-16T09:13:46.306Z,21.10
2023-02-16T09:14:46.282Z,18.10
2023-02-16T09:15:46.270Z,19.60
2023-02-16T09:16:46.421Z,20.00
2023-02-16T09:17:46.281Z,19.50
2023-02-16T09:18:46.280Z,19.20
2023-02-16T09:19:46.243Z,22.30
2023-02-16T09:20:47.087Z,19.50
2023-02-16T09:21:46.223Z,19.90
2023-02-16T09:22:46.241Z,20.90
2023-02-16T09:23:46.191Z,22.50
2023-02-16T09:24:46.171Z,19.70
2023-02-16T09:25:46.156Z,20.50
2023-02-16T09:26:46.164Z,21.00
2023-02-16T09:27:46.295Z,20.40
2023-02-16T09:28:46.165Z,20.70
2023-02-16T09:29:46.956Z,22.20
2023-02-16T09:30:46.143Z,20.40
2023-02-16T09:31:46.295Z,20.20
2023-02-16T09:32:46.254Z,20.80
2023-02-16T09:33:46.089Z,19.20
2023-02-16T09:34:46.070Z,18.30
2023-02-16T09:35:46.063Z,22.00
2023-02-16T09:36:46.073Z,18.30
2023-02-16T09:37:46.039Z,21.40
2023-02-16T09:38:46.039Z,19.60
2023-02-16T09:39:46.003Z,19.40
2023-02-16T09:40:46.042Z,21.20
2023-02-16T09:41:52.989Z,19.90
2023-02-16T09:42:45.981Z,18.60
2023-02-16T09:43:45.955Z,22.30
2023-02-16T09:44:45.965Z,21.30
2023-02-16T09:45:46.053Z,20.40
2023-02-16T09:46:45.982Z,19.10
2023-02-16T09:47:45.934Z,20.50
2023-02-16T09:48:45.912Z,19.80
2023-02-16T09:49:45.956Z,19.90
2023-02-16T09:50:53.712Z,19.10
2023-02-16T09:51:45.876Z,22.30
2023-02-16T09:52:45.860Z,20.90
2023-02-16T09:53:45.870Z,20.30
2023-02-16T09:54:45.856Z,20.90
2023-02-16T09:55:45.878Z,20.90
2023-02-16T09:56:46.020Z,19.30
2023-02-16T09:57:45.826Z,19.40
2023-02-16T09:58:45.792Z,19.00
2023-02-16T09:59:45.778Z,19.30
2023-02-16T10:00:45.859Z,21.70
2023-02-16T10:01:45.777Z,20.70
2023-02-16T10:02:45.973Z,19.20
2023-02-16T10:03:45.740Z,22.20
2023-02-16T10:04:46.273Z,19.50
2023-02-16T10:05:45.737Z,20.50
2023-02-16T10:06:45.710Z,18.30
2023-02-16T10:07:45.902Z,17.90
2023-02-16T10:08:45.733Z,18.90
2023-02-16T10:09:45.874Z,18.40
2023-02-16T10:10:45.669Z,19.20
2023-02-16T10:11:45.715Z,19.70
2023-02-16T10:12:45.648Z,20.10
2023-02-16T10:13:45.690Z,18.70
2023-02-16T10:14:45.660Z,18.40
2023-02-16T10:15:45.703Z,18.20
2023-02-16T10:16:45.639Z,20.60
2023-02-16T10:17:45.606Z,20.80
2023-02-16T10:18:45.649Z,21.60
2023-02-16T10:19:45.708Z,20.10
2023-02-16T10:20:45.589Z,21.30
2023-02-16T10:21:45.574Z,20.90
2023-02-16T10:22:45.550Z,19.30
2023-02-16T10:23:46.095Z,20.50
2023-02-16T10:24:45.577Z,19.30
2023-02-16T10:25:45.508Z,21.80
2023-02-16T10:26:45.541Z,20.40
2023-02-16T10:27:45.480Z,19.20
2023-02-16T10:28:45.476Z,22.70
2023-02-16T10:29:45.465Z,20.80
2023-02-16T10:30:45.525Z,19.20
2023-02-16T10:31:45.540Z,19.60
2023-02-16T10:32:45.439Z,23.00
2023-02-16T10:33:45.516Z,21.20
2023-02-16T10:34:45.396Z,19.50
2023-02-16T10:35:45.554Z,19.60
2023-02-16T10:36:45.444Z,19.10
2023-02-16T10:37:45.394Z,17.90
2023-02-16T10:38:45.613Z,19.00
2023-02-16T10:39:45.482Z,18.70
2023-02-16T10:40:45.402Z,20.10
2023-02-16T10:41:45.475Z,21.40
2023-02-16T10:42:45.491Z,21.10
2023-02-16T10:43:46.072Z,19.50
2023-02-16T10:44:45.451Z,18.80
2023-02-16T10:45:49.543Z,18.30
2023-02-16T10:46:45.513Z,20.20
2023-02-16T10:47:45.465Z,19.40
2023-02-16T10:48:45.402Z,18.50
2023-02-16T10:49:45.504Z,20.80
2023-02-16T10:50:45.405Z,20.50
2023-02-16T10:51:46.640Z,20.20
2023-02-16T10:52:47.253Z,19.20
2023-02-16T10:53:45.410Z,20.00
2023-02-16T10:54:45.436Z,19.80
2023-02-16T10:55:45.367Z,20.10
2023-02-16T10:56:45.418Z,19.90
2023-02-16T10:57:45.332Z,20.80
2023-02-16T10:58:45.470Z,20.70
2023-02-16T10:59:45.415Z,20.20
2023-02-16T11:00:46.252Z,18.90
2023-02-16T11:01:45.348Z,20.10
2023-02-16T11:02:45.445Z,19.00
2023-02-16T11:03:45.389Z,20.10
2023-02-16T11:04:46.487Z,21.40
2023-02-16T11:05:45.362Z,18.40
2023-02-16T11:06:45.326Z,19.20
2023-02-16T11:07:45.558Z,20.70
2023-02-16T11:08:46.322Z,18.80
2023-02-16T11:09:45.463Z,19.10
2023-02-16T11:10:45.474Z,19.30
2023-02-16T11:11:45.290Z,21.20
2023-02-16T11:12:45.340Z,21.10
2023-02-16T11:13:45.170Z,19.80
2023-02-16T11:14:45.155Z,18.90
2023-02-16T11:15:44.973Z,20.20
2023-02-16T11:16:45.059Z,18.20
2023-02-16T11:17:45.103Z,20.00
2023-02-16T11:18:44.986Z,18.80
2023-02-16T11:19:45.044Z,18.10
2023-02-16T11:20:45.052Z,16.40
2023-02-16T11:21:44.961Z,16.60
2023-02-16T11:22:44.913Z,16.50
2023-02-16T11:23:44.899Z,17.20
2023-02-16T11:24:44.888Z,17.30
2023-02-16T11:25:44.859Z,20.30
2023-02-16T11:26:44.854Z,18.60
2023-02-16T11:27:44.821Z,15.60
2023-02-16T11:28:44.818Z,15.60
2023-02-16T11:29:44.796Z,18.20
2023-02-16T11:30:44.863Z,17.40
2023-02-16T11:31:44.986Z,17.20
2023-02-16T11:32:44.779Z,18.10
2023-02-16T11:33:44.752Z,15.30
2023-02-16T11:34:44.743Z,17.00
2023-02-16T11:35:44.743Z,18.40
2023-02-16T11:36:44.718Z,16.70
2023-02-16T11:37:44.740Z,16.40
2023-02-16T11:38:44.731Z,16.20
2023-02-16T11:39:44.715Z,17.80
2023-02-16T11:40:44.678Z,17.50
2023-02-16T11:41:44.688Z,16.80
2023-02-16T11:42:52.613Z,19.50
2023-02-16T11:43:44.658Z,18.90
2023-02-16T11:44:44.640Z,16.00
2023-02-16T11:45:44.735Z,16.50
2023-02-16T11:46:44.783Z,16.80
2023-02-16T11:47:44.610Z,17.70
2023-02-16T11:48:44.593Z,16.10
2023-02-16T11:49:44.570Z,17.20
2023-02-16T11:50:44.571Z,17.80
2023-02-16T11:51:44.558Z,16.60
2023-02-16T11:52:44.560Z,16.00
2023-02-16T11:53:44.587Z,15.80
2023-02-16T11:54:44.517Z,15.30
2023-02-16T11:55:44.507Z,16.10
2023-02-16T11:56:44.496Z,16.50
2023-02-16T11:57:44.514Z,16.00
2023-02-16T11:58:44.513Z,15.40
2023-02-16T11:59:44.453Z,16.60
2023-02-16T12:00:44.460Z,17.20
2023-02-16T12:01:44.430Z,16.80
2023-02-16T12:02:44.422Z,17.70
2023-02-16T12:03:44.441Z,15.80
2023-02-16T12:04:44.428Z,17.10
2023-02-16T12:05:44.395Z,15.20
2023-02-16T12:06:44.416Z,15.50
2023-02-16T12:07:44.376Z,16.30
2023-02-16T12:08:44.359Z,14.80
2023-02-16T12:09:44.398Z,16.50
2023-02-16T12:10:44.334Z,16.20
2023-02-16T12:11:44.434Z,15.40
2023-02-16T12:12:44.359Z,15.30
2023-02-16T12:13:44.336Z,17.60
2023-02-16T12:14:44.315Z,15.00
2023-02-16T12:15:44.336Z,15.50
2023-02-16T12:16:44.306Z,15.20
2023-02-16T12:17:44.264Z,15.60
2023-02-16T12:18:44.255Z,15.10
2023-02-16T12:19:44.257Z,17.00
2023-02-16T12:20:44.224Z,14.20
2023-02-16T12:21:44.219Z,16.10
2023-02-16T12:22:44.208Z,14.80
2023-02-16T12:23:44.191Z,17.20
2023-02-16T12:24:44.348Z,14.90
2023-02-16T12:25:44.613Z,14.60
2023-02-16T12:26:44.194Z,16.40
2023-02-16T12:27:44.179Z,15.80
2023-02-16T12:28:44.171Z,15.70
2023-02-16T12:29:44.152Z,14.80
2023-02-16T12:30:44.147Z,15.70
2023-02-16T12:31:44.132Z,16.10
2023-02-16T12:32:44.105Z,15.30
2023-02-16T12:33:44.128Z,15.70
2023-02-16T12:34:44.068Z,15.80
2023-02-16T12:35:44.057Z,15.40
2023-02-16T12:36:44.116Z,15.10
2023-02-16T12:37:44.052Z,15.20
2023-02-16T12:38:44.047Z,16.10
2023-02-16T12:39:44.016Z,17.40
2023-02-16T12:40:43.992Z,15.10
2023-02-16T12:41:43.979Z,15.10
2023-02-16T12:42:43.980Z,15.90
2023-02-16T12:43:43.983Z,15.80
2023-02-16T12:44:43.973Z,14.90
2023-02-16T12:45:44.037Z,16.40
2023-02-16T12:46:43.942Z,14.70
2023-02-16T12:47:43.910Z,15.10
2023-02-16T12:48:43.938Z,15.30
2023-02-16T12:49:43.895Z,14.80
2023-02-16T12:50:44.131Z,15.40
2023-02-16T12:51:43.927Z,14.40
2023-02-16T12:52:43.862Z,15.60
2023-02-16T12:53:43.876Z,16.60
2023-02-16T12:54:43.857Z,15.30
2023-02-16T12:55:43.830Z,15.00
2023-02-16T12:56:43.866Z,16.50
2023-02-16T12:57:43.794Z,15.20
2023-02-16T12:58:43.786Z,15.80
2023-02-16T12:59:43.779Z,15.50
2023-02-16T13:00:43.847Z,14.80
2023-02-16T13:01:43.783Z,15.10
2023-02-16T13:02:43.783Z,15.00
2023-02-16T13:03:43.797Z,15.40
2023-02-16T13:04:43.749Z,13.90
2023-02-16T13:05:43.722Z,18.50
2023-02-16T13:06:43.720Z,19.00
2023-02-16T13:07:43.709Z,15.50
2023-02-16T13:08:43.778Z,14.50
2023-02-16T13:09:43.678Z,15.00
2023-02-16T13:10:43.668Z,20.30
2023-02-16T13:11:43.745Z,16.10
2023-02-16T13:12:43.658Z,14.40
2023-02-16T13:13:43.624Z,16.90
2023-02-16T13:14:43.626Z,15.80
2023-02-16T13:15:43.629Z,15.40
2023-02-16T13:16:43.663Z,14.90
2023-02-16T13:17:43.602Z,15.90
2023-02-16T13:18:43.570Z,14.30
2023-02-16T13:19:43.558Z,15.10
2023-02-16T13:20:43.564Z,15.90
2023-02-16T13:22:44.539Z,16.50
2023-02-16T13:23:43.521Z,16.30
2023-02-16T13:24:43.500Z,16.40
2023-02-16T13:25:43.592Z,16.80
2023-02-16T13:26:43.562Z,16.70
2023-02-16T13:27:43.482Z,15.60
2023-02-16T13:28:43.618Z,17.10
2023-02-16T13:29:43.525Z,14.50
2023-02-16T13:30:43.605Z,16.50
2023-02-16T13:31:43.559Z,15.00
2023-02-16T13:32:43.441Z,16.90
2023-02-16T13:33:43.468Z,16.80
2023-02-16T13:34:43.448Z,15.80
2023-02-16T13:35:43.405Z,16.70
2023-02-16T13:36:43.409Z,15.90
2023-02-16T13:37:43.363Z,16.20
2023-02-16T13:38:43.363Z,18.50
2023-02-16T13:39:43.341Z,16.10
2023-02-16T13:40:43.324Z,17.00
2023-02-16T13:41:43.325Z,16.80
2023-02-16T13:42:43.364Z,15.00
2023-02-16T13:52:49.299Z,14.90
2023-02-16T13:53:49.258Z,17.20
2023-02-16T13:54:49.240Z,17.60
2023-02-16T13:55:49.257Z,16.60
2023-02-16T13:56:49.256Z,16.10
2023-02-16T13:57:51.252Z,16.80
2023-02-16T13:58:49.207Z,16.90
2023-02-16T13:59:49.190Z,17.70
2023-02-16T14:00:49.187Z,19.30
2023-02-16T14:01:49.177Z,18.20
2023-02-16T14:02:49.138Z,18.70
2023-02-16T14:03:49.164Z,19.10
2023-02-16T14:04:49.205Z,18.20
2023-02-16T14:05:49.162Z,17.20
2023-02-16T14:06:49.099Z,17.00
2023-02-16T14:07:49.095Z,17.40
2023-02-16T14:08:49.107Z,19.50
2023-02-16T14:09:49.112Z,18.00
2023-02-16T14:10:49.061Z,17.90
2023-02-16T14:11:49.086Z,17.30
2023-02-16T14:12:49.032Z,17.90
2023-02-16T14:13:49.077Z,18.10
2023-02-16T14:14:50.313Z,19.30
2023-02-16T14:15:49.061Z,20.70
2023-02-16T14:16:48.987Z,18.20
2023-02-16T14:17:48.976Z,18.50
2023-02-16T14:18:48.979Z,17.30
2023-02-16T14:19:48.956Z,19.70
2023-02-16T14:20:50.678Z,19.10
2023-02-16T14:21:48.936Z,20.00
2023-02-16T14:22:48.937Z,18.10
2023-02-16T14:23:48.908Z,18.30
2023-02-16T14:24:48.958Z,19.10
2023-02-16T14:25:48.899Z,17.90
2023-02-16T14:26:48.909Z,19.10
2023-02-16T14:27:48.907Z,18.50
2023-02-16T14:28:48.894Z,19.50
2023-02-16T14:29:48.861Z,18.80
2023-02-16T14:30:48.950Z,18.90
2023-02-16T14:31:48.945Z,18.00
2023-02-16T14:32:48.826Z,18.30
2023-02-16T14:33:48.829Z,18.70
2023-02-16T14:34:48.816Z,20.60
2023-02-16T14:35:48.793Z,18.70
2023-02-16T14:36:48.806Z,19.20
2023-02-16T14:37:48.758Z,18.80
2023-02-16T14:50:50.205Z,18.60
2023-02-16T14:51:50.170Z,18.60
2023-02-16T14:52:50.162Z,19.90
2023-02-16T14:53:50.138Z,18.90
2023-02-16T14:54:50.153Z,18.40
2023-02-16T14:55:50.126Z,20.00
2023-02-16T14:56:50.122Z,19.70
2023-02-16T14:57:50.095Z,20.00
2023-02-16T14:58:50.085Z,18.60
2023-02-16T14:59:50.089Z,18.60
2023-02-16T15:00:50.117Z,18.60
2023-02-16T15:01:50.110Z,18.90
2023-02-16T15:02:50.049Z,18.70
2023-02-16T15:03:50.100Z,18.30
2023-02-16T15:04:50.016Z,20.30
2023-02-16T15:05:50.014Z,19.30
2023-02-16T15:06:50.028Z,18.60
2023-02-16T15:07:50.174Z,18.60
2023-02-16T15:08:49.982Z,19.40
2023-02-16T15:09:49.976Z,19.10
2023-02-16T15:10:49.965Z,19.40
2023-02-16T15:11:49.938Z,19.00
2023-02-16T15:12:49.932Z,18.90
2023-02-16T15:13:49.927Z,19.60
2023-02-16T15:14:49.933Z,19.60
2023-02-16T15:15:49.932Z,19.40
2023-02-16T15:16:49.886Z,19.00
2023-02-16T15:17:49.891Z,19.90
2023-02-16T15:18:49.889Z,20.80
2023-02-16T15:19:49.894Z,18.60
2023-02-16T15:20:49.851Z,19.20
2023-02-16T15:21:49.858Z,19.80
2023-02-16T15:22:49.841Z,19.80
2023-02-16T15:23:49.808Z,20.60
2023-02-16T15:24:49.847Z,18.50
2023-02-16T15:25:49.803Z,20.20
2023-02-16T15:26:49.777Z,19.80
2023-02-16T15:27:49.771Z,19.80
2023-02-16T15:28:49.769Z,19.50
2023-02-16T15:29:49.743Z,19.50
2023-02-16T15:30:49.795Z,19.10
2023-02-16T15:31:49.853Z,20.20
2023-02-16T15:32:49.723Z,20.00
2023-02-16T15:33:49.697Z,19.40
2023-02-16T15:34:49.700Z,19.10
2023-02-16T15:35:49.687Z,19.40
2023-02-16T15:36:49.689Z,19.90
2023-02-16T15:37:49.656Z,20.00
2023-02-16T15:38:49.666Z,19.40
2023-02-16T15:40:08.741Z,20.40
2023-02-16T15:40:50.639Z,20.60
2023-02-16T15:41:49.610Z,21.20
2023-02-16T15:42:49.602Z,20.30
2023-02-16T15:43:49.613Z,20.20
2023-02-16T15:44:49.581Z,19.60
2023-02-16T15:45:49.588Z,18.90
2023-02-16T15:46:49.582Z,20.60
2023-02-16T15:47:49.573Z,20.10
2023-02-16T15:48:49.538Z,20.20
2023-02-16T15:49:49.567Z,21.30
2023-02-16T15:50:49.529Z,19.30
2023-02-16T15:51:49.546Z,20.20
2023-02-16T15:52:49.494Z,19.60
2023-02-16T15:53:49.492Z,19.90